Terminal Aerodrome Forecast
Issued by NWS

Home | Current Version | Previous Version | Text Only | Print | Product List | Glossary On
Versions: 1 2 3 4 5 6 7 8 9 10 11 12 13 14 15 16 17 18 19 20 21 22 23
000
FTUS43 KMKX 300645 AAB
TAFUES
TAF AMD
KUES 300645Z 3007/0106 04010G17KT P6SM SCT018 BKN022
      TEMPO 3007/3009 -SHRA BKN018
     FM301200 04014KT P6SM VCSH BKN015 OVC025
     FM301400 04015KT 6SM -SHRA BR BKN015 OVC030
     FM301700 04014KT 6SM BR VCSH SCT010 OVC020
     FM302100 03011G19KT 5SM -SHRA SCT010 OVC015
     FM010000 04008KT 4SM SHRA BKN010 OVC015=

USA.gov is the U.S. government's official web portal to all federal, state and local government web resources and services.